San Antonio, TX (78256)

6:41 PM CST on November 26, 2014 (GMT -0600)
The Dominion | Change Station
CLOSE
Current Station
Personal Weather Station
Location: San Antonio, TX
Elevation: 1122 ft
Nearby Weather Stations

Elev 1122 ft 29.64 °N, 98.61 °W | Updated 1 minute ago

Clear
Clear
56.1 °F
Feels Like 56.1 °F
N
0.0
Wind Variable Wind from SSW
Gusts 0.0 mph

Today
High -- | Low -- °F
--% Chance of Precip.
Yesterday
High -- | Low -- °F
Precip. -- in
7:07 AM 5:35 PM
Waxing Crescent, 24% visible
Pressure 30.24 in
Visibility 10.0 miles
Clouds Clear
Dew Point 42 °F
Humidity 59%
Rainfall 0.00 in
Snow Depth Not available.
UV 0 out of 12
Pollen 4.80 out of 12
Air Quality Not available.
Flu Activity Not available.
METAR K5C1 270015Z AUTO 00000KT 10SM CLR 13/00 A3024 RMK AO1

More Conditions Fewer Conditions

Pressure 30.24 in
Visibility 10.0 miles
Clouds Clear
Dew Point 42 °F
Humidity 59%
Rainfall 0.00 in
Snow Depth Not available.
UV 0 out of 12
Pollen 4.80 out of 12
Air Quality Not available.
Flu Activity Not available.
METAR K5C1 270015Z AUTO 00000KT 10SM CLR 13/00 A3024 RMK AO1

More Conditions Fewer Conditions

10-Day Weather Forecast

Almanac

Astronomy

Nov. 26, 2014 Rise Set
Actual Time
Civil Twilight
Nautical Twilight
Astronomical Twilight
Moon
Length of Visible Light
Length of Day
Tomorrow will be .
, % of the Moon is Illuminated

Today's Extremes

State Highs State Lows

Community

WunderPhotos

Upload Photos

1,773,930 photos uploaded!

WunderBlogs® & News

Nearby

Air Quality

  Air Quality AQ Index Pollutant
Not available.

Snow Depth

Station Depth Elevation

Earthquake Activity

City Distance Mag. Time & Date
Minimum magnitude displayed is 2.5.

Coastal Water Temperatures

Place Temperature

Nearby Weather Stations